Historique des mesures à Cassis (13260), France
Quotidien Résumé Mars 19, 2017 Unités:  US    Métrique   Métrique/US
« Précédent (Jour)
Suivant (Jour) »
Quotidien Hebdomadaire Mensuel Annuel Période au choix
  Maximum: Minimum: Moyenne:
Température: 32 °F 56.5 °F 60.3 °F
Point de rosée: 32 °F 44.4 °F 47.8 °F
Humidité: Humidity % 56 % 60 %
Vitesse du vent: WindSpeedKMH mph 0.0 mph 4.4 mph
Rafales: WindSpeedGustKMH mph - -
Vent:- - South
Pression: 0 in 29.8 in -
Précipitations: 0 in    
Historical Graphs
 
 
Mesures pour : Mars 19, 2017
Heure Temperature Point de rosée Pression Vent Vitesse du vent Rafales Humidité Pluie (par heure) Conditions
32 °F 32 °F 0 in Calm     Humidity % 0 in SoftwareType W/m2
00:11 61 °F 46 °F 29.8 in NNE 16.9 mph 16.9 mph 58 % 0 in open2300-1.11 W/m2
01:10 60.1 °F 46.2 °F 29.8 in NW 14.0 mph 19.5 mph 60 % 0 in open2300-1.11 W/m2
02:11 59.9 °F 46.6 °F 29.8 in NW 7.6 mph 14.0 mph 61 % 0 in open2300-1.11 W/m2
03:10 58.8 °F 46.2 °F 29.8 in North 14.3 mph 24.5 mph 63 % 0 in open2300-1.11 W/m2
04:11 58.5 °F 45.9 °F 29.8 in NNW 12.2 mph 12.2 mph 63 % 0 in open2300-1.11 W/m2
05:10 58.6 °F 45.7 °F 29.8 in NE 7.6 mph 30.2 mph 62 % 0 in open2300-1.11 W/m2
06:11 58.1 °F 45.5 °F 29.8 in Calm   2.6 mph 63 % 0 in open2300-1.11 W/m2
07:10 56.5 °F 44.4 °F 29.8 in Calm     64 % 0 in open2300-1.11 W/m2
08:11 57 °F 45 °F 29.8 in WNW 5.8 mph 5.8 mph 64 % 0 in open2300-1.11 W/m2
09:10 59.2 °F 46.2 °F 29.8 in Calm   10.1 mph 62 % 0 in open2300-1.11 W/m2
10:11 61 °F 47.1 °F 29.8 in North 3.5 mph 15.8 mph 59 % 0 in open2300-1.11 W/m2
11:10 65.8 °F 50.2 °F 29.8 in SSW 3.2 mph 3.2 mph 57 % 0 in open2300-1.11 W/m2
12:11 67.6 °F 51.3 °F 29.8 in SSE 4.7 mph 5.5 mph 56 % 0 in open2300-1.11 W/m2
13:10 68.2 °F 52.3 °F 29.8 in SSW 4.7 mph 8.7 mph 57 % 0 in open2300-1.11 W/m2
14:11 67.3 °F 53.1 °F 29.8 in West 1.4 mph 6.1 mph 60 % 0 in open2300-1.11 W/m2
15:10 67.1 °F 52.9 °F 29.8 in SSE 9.7 mph 9.7 mph 60 % 0 in open2300-1.11 W/m2
16:11 66.2 °F 52.9 °F 29.8 in Calm   3.2 mph 62 % 0 in open2300-1.11 W/m2
17:10 66.2 °F 52 °F 29.8 in Calm   1.4 mph 60 % 0 in open2300-1.11 W/m2
18:11 64.2 °F 50.9 °F 29.8 in Calm   2.9 mph 62 % 0 in open2300-1.11 W/m2
19:10 62.4 °F 50.5 °F 29.8 in SE 1.1 mph 1.4 mph 65 % 0 in open2300-1.11 W/m2
21:10 58.1 °F 48.7 °F 29.8 in Calm     71 % 0 in open2300-1.11 W/m2
22:11 57.4 °F 49.1 °F 29.8 in Calm     74 % 0 in open2300-1.11 W/m2
23:10 56.8 °F 49.3 °F 29.8 in Calm     76 % 0 in open2300-1.11 W/m2
Observations météo à CASSIS
WU-History script by Weather Underground - 1 mb